Time;durP1;ratioP1;P1;durP2;ratioP2;P2;SDS_P1;SDS_P2;PMS_P1;PMS_P2;Temp;Humidity;BMP_temperature;BMP_pressure;BME280_temperature;BME280_humidity;BME280_pressure;Samples;Min_cycle;Max_cycle;Signal;HPM_P1;HPM_P2
2021/07/30 00:01:50;;;;;;;;;0.00;0.00;;;;;20.33;47.01;100676.72;6088276;23;45308;-79
2021/07/30 00:04:17;;;;;;;;;0.00;0.00;;;;;20.22;47.49;100661.22;6066919;23;45803;-80
2021/07/30 00:06:42;;;;;;;;;0.00;0.00;;;;;20.77;47.61;100748.38;6069478;23;45305;-78
2021/07/30 00:09:07;;;;;;;;;0.00;0.00;;;;;20.21;47.50;100660.34;6073730;23;58640;-79
2021/07/30 00:11:33;;;;;;;;;0.00;0.00;;;;;20.48;47.46;100699.13;6086766;23;45687;-79
2021/07/30 00:13:58;;;;;;;;;0.00;0.00;;;;;20.18;47.14;100663.09;6075285;23;45314;-79
2021/07/30 00:16:23;;;;;;;;;0.00;0.00;;;;;20.77;47.07;100756.31;6088799;23;45365;-78
2021/07/30 00:18:49;;;;;;;;;0.00;0.00;;;;;19.91;47.44;100610.25;6088199;23;57278;-78
2021/07/30 00:21:14;;;;;;;;;0.00;0.00;;;;;20.38;47.53;100680.09;6088616;23;45388;-78
2021/07/30 00:23:39;;;;;;;;;0.00;0.00;;;;;20.76;47.97;100746.66;6088853;23;45376;-79
2021/07/30 00:26:05;;;;;;;;;0.00;0.00;;;;;20.25;47.96;100669.91;6074279;23;45520;-79
2021/07/30 00:28:30;;;;;;;;;0.00;0.00;;;;;20.75;48.15;100744.94;6088424;23;46038;-78
2021/07/30 00:30:55;;;;;;;;;0.00;0.00;;;;;19.96;47.82;100607.41;6088287;23;45247;-78
2021/07/30 00:33:21;;;;;;;;;0.00;0.00;;;;;20.13;48.00;100643.91;6088831;23;45463;-78
2021/07/30 00:35:46;;;;;;;;;0.00;0.00;;;;;20.31;48.30;100674.16;6080091;23;47617;-79
2021/07/30 00:38:11;;;;;;;;;0.00;0.00;;;;;20.17;48.57;100647.28;6069034;23;46054;-78
2021/07/30 00:40:37;;;;;;;;;0.00;0.00;;;;;20.07;48.46;100644.09;6085459;23;56371;-79
2021/07/30 00:43:05;;;;;;;;;0.00;0.00;;;;;19.97;48.41;100617.94;6088098;23;45485;-78
2021/07/30 00:45:31;;;;;;;;;0.00;0.00;;;;;20.61;48.54;100729.53;6088992;23;45415;-78
2021/07/30 00:47:57;;;;;;;;;0.00;0.00;;;;;19.86;48.52;100601.59;6078317;23;46124;-78
2021/07/30 00:50:23;;;;;;;;;1.00;0.00;;;;;20.50;49.01;100711.41;6080741;23;45354;-79
2021/07/30 00:52:49;;;;;;;;;0.00;0.00;;;;;20.56;49.01;100727.97;6082410;23;45434;-79
2021/07/30 00:55:14;;;;;;;;;0.00;0.00;;;;;20.43;49.04;100707.22;6078406;23;45610;-79
2021/07/30 00:57:40;;;;;;;;;0.00;0.00;;;;;20.37;48.85;100688.94;6077250;23;45304;-79
2021/07/30 01:00:06;;;;;;;;;0.00;0.00;;;;;19.73;49.22;100593.19;6088660;23;45553;-79
2021/07/30 01:02:32;;;;;;;;;0.00;0.00;;;;;20.06;49.16;100640.59;6076649;23;45451;-78
2021/07/30 01:04:58;;;;;;;;;0.00;0.00;;;;;19.90;49.19;100616.41;6075028;23;45372;-80
2021/07/30 01:07:24;;;;;;;;;0.00;0.00;;;;;20.49;49.33;100714.09;6087537;23;45488;-80
2021/07/30 01:09:49;;;;;;;;;0.00;0.00;;;;;19.84;49.47;100616.59;6087519;23;45471;-79
2021/07/30 01:12:16;;;;;;;;;0.00;0.00;;;;;19.59;49.16;100580.44;6087272;23;45403;-78
2021/07/30 01:14:41;;;;;;;;;0.00;0.00;;;;;20.45;49.37;100713.31;6087998;23;45573;-78
2021/07/30 01:17:07;;;;;;;;;0.00;0.00;;;;;19.73;49.52;100601.97;6071553;23;48140;-78
2021/07/30 01:19:32;;;;;;;;;0.25;0.00;;;;;19.77;49.36;100597.47;6087927;23;46309;-78
2021/07/30 01:22:07;;;;;;;;;0.00;0.00;;;;;19.97;49.44;100630.31;6088444;23;45210;-79
2021/07/30 01:24:32;;;;;;;;;0.00;0.00;;;;;19.64;49.70;100578.53;6087734;23;45744;-78
2021/07/30 01:26:58;;;;;;;;;0.00;0.00;;;;;20.36;49.57;100692.47;6087821;23;46234;-79
2021/07/30 01:29:27;;;;;;;;;0.00;0.00;;;;;19.56;49.47;100564.69;6074438;23;45326;-79
2021/07/30 01:31:52;;;;;;;;;0.00;0.00;;;;;20.12;49.82;100656.25;6076252;23;45345;-79
2021/07/30 01:34:17;;;;;;;;;0.00;0.00;;;;;19.61;49.68;100563.63;6088176;23;45385;-77
2021/07/30 01:36:43;;;;;;;;;1.00;0.00;;;;;19.89;49.64;100614.69;6088448;23;45773;-78
2021/07/30 01:39:08;;;;;;;;;0.00;0.00;;;;;19.67;49.56;100581.06;6087448;23;51027;-79
2021/07/30 01:41:33;;;;;;;;;0.00;0.00;;;;;19.87;49.54;100616.50;6068360;23;45432;-78
2021/07/30 01:43:59;;;;;;;;;0.00;0.00;;;;;20.10;49.99;100644.88;6083019;23;45937;-78
2021/07/30 01:46:24;;;;;;;;;0.00;0.00;;;;;19.85;49.66;100602.50;6071049;23;48216;-77
2021/07/30 01:48:49;;;;;;;;;0.00;0.00;;;;;19.81;49.60;100600.88;6087132;23;45650;-78
2021/07/30 01:51:14;;;;;;;;;0.00;0.00;;;;;19.62;49.61;100575.94;6088221;23;45482;-77
2021/07/30 01:53:40;;;;;;;;;0.00;0.00;;;;;19.48;50.25;100552.59;6078991;23;45356;-77
2021/07/30 01:56:05;;;;;;;;;0.00;0.00;;;;;20.03;49.92;100640.69;6083903;23;50908;-79
2021/07/30 01:58:33;;;;;;;;;0.00;0.00;;;;;19.61;50.17;100583.91;6088164;23;45424;-78
2021/07/30 02:00:58;;;;;;;;;0.00;0.00;;;;;19.63;49.71;100595.25;6087872;23;45356;-78
2021/07/30 02:03:23;;;;;;;;;0.00;0.00;;;;;19.76;49.94;100632.72;6088139;23;45292;-78
2021/07/30 02:05:48;;;;;;;;;0.00;0.00;;;;;19.91;49.98;100649.00;6088008;23;45699;-78
2021/07/30 02:08:14;;;;;;;;;0.00;0.00;;;;;19.43;49.99;100586.22;6088120;23;45329;-79
2021/07/30 02:10:40;;;;;;;;;0.00;0.00;;;;;19.81;50.01;100633.41;6087591;23;48751;-78
2021/07/30 02:15:49;;;;;;;;;0.00;0.00;;;;;19.82;50.28;100634.28;6087195;23;45349;-78
2021/07/30 02:18:14;;;;;;;;;0.00;0.00;;;;;19.93;50.35;100647.16;6087712;23;51639;-78
2021/07/30 02:20:40;;;;;;;;;0.00;0.00;;;;;19.37;50.01;100565.28;6064213;23;45500;-78
2021/07/30 02:23:05;;;;;;;;;0.00;0.00;;;;;20.03;50.41;100664.47;6087251;23;45349;-79
2021/07/30 02:25:31;;;;;;;;;0.00;0.00;;;;;18.97;50.26;100491.69;6086033;23;58372;-78
2021/07/30 02:27:56;;;;;;;;;0.00;0.00;;;;;19.73;50.29;100609.88;6087251;23;45419;-78
2021/07/30 02:30:21;;;;;;;;;0.00;0.00;;;;;19.53;50.30;100581.50;6087670;23;45346;-78
2021/07/30 02:32:47;;;;;;;;;0.00;0.00;;;;;19.91;50.27;100641.94;6087440;23;45710;-78
2021/07/30 02:35:12;;;;;;;;;0.75;0.00;;;;;20.02;50.01;100653.94;6087484;23;51439;-79
2021/07/30 02:37:37;;;;;;;;;0.00;0.00;;;;;20.02;50.47;100653.94;6086723;23;55492;-78
2021/07/30 02:40:03;;;;;;;;;0.00;0.00;;;;;19.44;50.14;100550.97;6087312;23;45578;-80
2021/07/30 02:42:28;;;;;;;;;0.00;0.00;;;;;19.17;50.20;100507.84;6088486;23;45400;-79
2021/07/30 02:44:54;;;;;;;;;0.00;0.00;;;;;19.36;50.34;100548.56;6086422;23;62709;-79
2021/07/30 02:47:19;;;;;;;;;0.00;0.00;;;;;19.39;50.14;100547.63;6087596;23;46691;-79
2021/07/30 02:49:44;;;;;;;;;0.00;0.00;;;;;19.99;50.21;100644.31;6087542;23;47759;-80
2021/07/30 02:52:09;;;;;;;;;0.00;0.00;;;;;19.58;50.64;100587.50;6087525;23;45413;-78
2021/07/30 02:54:35;;;;;;;;;0.00;0.00;;;;;19.98;50.65;100651.38;6087980;23;46986;-77
2021/07/30 02:57:00;;;;;;;;;0.00;0.00;;;;;19.98;50.45;100646.09;6076371;23;46227;-77
2021/07/30 02:59:25;;;;;;;;;0.00;0.00;;;;;19.30;50.45;100524.16;6078154;23;45263;-76
2021/07/30 03:01:51;;;;;;;;;0.00;0.00;;;;;19.96;50.57;100636.47;6085165;23;45329;-78
2021/07/30 03:04:16;;;;;;;;;2.00;0.00;;;;;19.58;50.65;100578.72;6087347;23;45336;-78
2021/07/30 03:06:41;;;;;;;;;0.00;0.00;;;;;19.34;50.99;100531.06;6086875;23;45277;-77
2021/07/30 03:09:07;;;;;;;;;0.00;0.00;;;;;19.68;50.58;100595.13;6088168;23;45317;-78
2021/07/30 03:11:32;;;;;;;;;0.50;0.50;;;;;19.49;50.77;100575.47;6087839;23;45293;-77
2021/07/30 03:13:57;;;;;;;;;0.25;0.25;;;;;19.54;51.09;100598.19;6084897;23;46163;-77
2021/07/30 03:16:23;;;;;;;;;0.50;0.00;;;;;19.54;51.00;100598.19;6087310;23;45495;-80
2021/07/30 03:18:48;;;;;;;;;0.00;0.00;;;;;19.48;51.06;100594.00;6087908;23;45435;-78
2021/07/30 03:21:13;;;;;;;;;0.00;0.00;;;;;19.56;51.58;100620.13;6087619;23;45340;-77
2021/07/30 03:23:39;;;;;;;;;0.00;0.00;;;;;19.33;51.53;100587.41;6087169;23;46208;-78
2021/07/30 03:26:04;;;;;;;;;0.00;0.00;;;;;19.62;51.30;100625.22;6087744;23;45362;-79
2021/07/30 03:28:29;;;;;;;;;1.00;1.00;;;;;19.21;51.31;100560.44;6087062;23;45294;-78
2021/07/30 03:30:59;;;;;;;;;0.00;0.00;;;;;18.98;51.43;100535.63;6087390;23;45317;-78
2021/07/30 03:33:25;;;;;;;;;0.00;0.00;;;;;19.55;51.50;100634.25;6085535;23;46252;-78
2021/07/30 03:35:50;;;;;;;;;0.00;0.00;;;;;18.97;51.80;100549.72;6086141;23;45430;-78
2021/07/30 03:38:15;;;;;;;;;0.00;0.00;;;;;18.97;52.15;100552.34;6087486;23;45427;-79
2021/07/30 03:40:42;;;;;;;;;0.00;0.00;;;;;19.48;51.73;100639.69;6088113;23;45498;-79
2021/07/30 03:43:08;;;;;;;;;0.00;0.00;;;;;18.98;51.81;100558.47;6086782;23;46611;-79
2021/07/30 03:45:33;;;;;;;;;0.00;0.00;;;;;18.53;51.79;100494.72;6087325;23;45312;-79
2021/07/30 03:47:58;;;;;;;;;0.00;0.00;;;;;18.68;52.39;100503.97;6085726;23;45411;-77
2021/07/30 03:50:24;;;;;;;;;0.00;0.00;;;;;19.42;52.08;100623.19;6087389;23;45282;-79
2021/07/30 03:52:49;;;;;;;;;0.75;0.00;;;;;18.77;52.55;100526.56;6086822;23;45659;-79
2021/07/30 03:55:14;;;;;;;;;0.00;0.00;;;;;19.06;52.61;100582.88;6087258;23;45269;-80
2021/07/30 03:57:39;;;;;;;;;0.00;0.00;;;;;18.76;52.41;100545.06;6086588;23;52835;-79
2021/07/30 04:00:05;;;;;;;;;0.00;0.00;;;;;19.03;52.93;100587.38;6087277;23;45412;-80
2021/07/30 04:02:31;;;;;;;;;0.00;0.00;;;;;18.56;53.16;100520.16;6087249;23;45551;-79
2021/07/30 04:04:56;;;;;;;;;0.00;0.00;;;;;18.54;52.59;100527.22;6088572;23;45804;-79
2021/07/30 04:07:21;;;;;;;;;1.00;0.00;;;;;19.01;53.69;100626.13;6088745;23;45386;-79
2021/07/30 04:09:47;;;;;;;;;0.00;0.00;;;;;18.31;53.68;100523.44;6089629;23;45435;-79
2021/07/30 04:12:12;;;;;;;;;0.00;0.00;;;;;18.44;53.83;100555.59;6088202;23;46299;-79
2021/07/30 04:14:37;;;;;;;;;0.25;0.00;;;;;18.83;53.99;100626.59;6087899;23;63170;-79
2021/07/30 04:17:03;;;;;;;;;0.00;0.00;;;;;18.10;53.76;100512.59;6079028;23;45891;-79
2021/07/30 04:19:28;;;;;;;;;0.00;0.00;;;;;18.46;54.09;100588.03;6077185;23;45357;-79
2021/07/30 04:21:53;;;;;;;;;0.00;0.00;;;;;18.45;54.36;100589.84;6071593;23;48131;-78
2021/07/30 04:24:19;;;;;;;;;0.00;0.00;;;;;17.94;54.69;100509.44;6076006;23;45432;-79
2021/07/30 04:26:44;;;;;;;;;0.00;0.00;;;;;18.09;54.88;100537.16;6085441;23;45462;-79
2021/07/30 04:29:10;;;;;;;;;0.00;0.00;;;;;18.58;55.12;100623.75;6086828;23;45423;-79
2021/07/30 04:31:39;;;;;;;;;0.00;0.00;;;;;17.85;54.37;100507.91;6076574;23;45370;-79
2021/07/30 04:34:06;;;;;;;;;0.00;0.00;;;;;17.90;54.95;100510.44;6086093;23;45738;-78
2021/07/30 04:36:31;;;;;;;;;0.00;0.00;;;;;18.37;54.74;100589.16;6088973;23;45483;-78
2021/07/30 04:38:56;;;;;;;;;0.00;0.00;;;;;18.61;54.93;100635.09;6088150;23;45388;-78
2021/07/30 04:41:22;;;;;;;;;0.00;0.00;;;;;18.09;55.18;100545.94;6086782;23;55318;-78
2021/07/30 04:43:47;;;;;;;;;0.25;0.25;;;;;17.91;54.49;100522.69;6088338;23;45541;-78
2021/07/30 04:46:16;;;;;;;;;1.50;0.00;;;;;18.42;54.99;100600.44;6087814;23;46378;-78
2021/07/30 04:48:42;;;;;;;;;0.00;0.00;;;;;18.28;54.60;100576.25;6086703;23;45414;-78
2021/07/30 04:51:08;;;;;;;;;0.00;0.00;;;;;18.30;55.30;100583.19;6088271;23;46020;-80
2021/07/30 04:53:33;;;;;;;;;0.00;0.00;;;;;18.55;54.73;100615.91;6088197;23;45289;-78
2021/07/30 04:55:58;;;;;;;;;1.00;0.00;;;;;18.66;54.88;100634.97;6087460;23;50597;-79
2021/07/30 04:58:24;;;;;;;;;0.00;0.00;;;;;18.67;55.24;100631.41;6086964;23;45400;-79
2021/07/30 05:00:49;;;;;;;;;0.00;0.00;;;;;18.72;54.61;100631.28;6087421;23;45223;-79
2021/07/30 05:03:15;;;;;;;;;0.00;0.00;;;;;18.53;54.72;100607.22;6088220;23;45637;-79
2021/07/30 05:05:40;;;;;;;;;0.00;0.00;;;;;18.10;54.65;100526.63;6087839;23;45724;-79
2021/07/30 05:08:06;;;;;;;;;0.00;0.00;;;;;18.68;54.22;100629.66;6086332;23;45318;-80
2021/07/30 05:10:32;;;;;;;;;0.00;0.00;;;;;17.94;54.08;100507.69;6087422;23;45792;-79
2021/07/30 05:12:57;;;;;;;;;0.00;0.00;;;;;18.44;54.35;100588.06;6087714;23;45407;-79
2021/07/30 05:15:22;;;;;;;;;0.00;0.00;;;;;18.76;54.03;100622.38;6086691;23;45407;-78
2021/07/30 05:17:47;;;;;;;;;0.00;0.00;;;;;17.80;54.50;100467.69;6077232;23;45829;-78
2021/07/30 05:20:13;;;;;;;;;0.25;0.00;;;;;18.76;54.17;100618.88;6087239;23;45404;-78
2021/07/30 05:22:39;;;;;;;;;0.00;0.00;;;;;18.77;54.11;100626.75;6086672;23;45429;-78
2021/07/30 05:25:05;;;;;;;;;0.00;0.00;;;;;18.74;53.68;100605.72;6087861;23;45408;-79
2021/07/30 05:27:30;;;;;;;;;0.00;0.00;;;;;18.82;53.93;100627.50;6088478;23;45358;-79
2021/07/30 05:29:58;;;;;;;;;0.00;0.00;;;;;18.76;53.58;100608.34;6075029;23;45880;-78
2021/07/30 05:32:24;;;;;;;;;0.00;0.00;;;;;18.14;53.33;100506.34;6086252;23;45281;-78
2021/07/30 05:34:49;;;;;;;;;0.00;0.00;;;;;18.08;53.32;100501.19;6087771;23;45327;-78
2021/07/30 05:37:15;;;;;;;;;0.00;0.00;;;;;19.01;52.84;100626.13;6086379;23;45396;-78
2021/07/30 05:39:41;;;;;;;;;0.00;0.00;;;;;18.74;53.32;100582.88;6087292;23;45742;-80
2021/07/30 05:42:07;;;;;;;;;0.00;0.00;;;;;18.68;53.20;100545.28;6087012;23;45439;-79
2021/07/30 05:44:32;;;;;;;;;0.00;0.00;;;;;19.29;52.83;100630.63;6086288;23;45384;-78
2021/07/30 05:46:58;;;;;;;;;0.00;0.00;;;;;18.92;52.38;100563.94;6087758;23;45280;-79
2021/07/30 05:49:23;;;;;;;;;0.25;0.00;;;;;18.87;52.60;100546.47;6086550;23;46308;-79
2021/07/30 05:51:48;;;;;;;;;0.00;0.00;;;;;18.98;52.52;100551.44;6086318;23;45566;-79
2021/07/30 05:54:14;;;;;;;;;0.00;0.00;;;;;18.82;52.24;100522.03;6071000;23;45405;-79
2021/07/30 05:56:39;;;;;;;;;0.50;0.00;;;;;18.73;52.33;100517.88;6087667;23;45372;-78
2021/07/30 05:59:04;;;;;;;;;0.00;0.00;;;;;18.91;52.50;100549.91;6086451;23;47370;-79
2021/07/30 06:01:30;;;;;;;;;0.00;0.00;;;;;19.32;52.61;100622.59;6083825;23;45485;-79
2021/07/30 06:03:56;;;;;;;;;0.00;0.00;;;;;19.35;52.61;100620.75;6075894;23;57673;-77
2021/07/30 06:06:21;;;;;;;;;1.25;0.00;;;;;19.35;52.97;100622.50;6086185;23;45665;-78
2021/07/30 06:08:46;;;;;;;;;0.00;0.00;;;;;19.12;52.74;100573.94;6086296;23;45355;-79
2021/07/30 06:11:13;;;;;;;;;0.00;0.00;;;;;19.21;53.05;100568.38;6084908;23;45349;-79
2021/07/30 06:13:38;;;;;;;;;0.00;0.00;;;;;19.30;52.94;100579.56;6086860;23;45444;-78
2021/07/30 06:16:08;;;;;;;;;1.00;0.00;;;;;19.56;53.02;100617.47;6085616;23;45331;-78
2021/07/30 06:18:33;;;;;;;;;0.00;0.00;;;;;19.29;53.39;100573.41;6086530;23;45365;-78
2021/07/30 06:20:58;;;;;;;;;0.00;0.00;;;;;19.36;52.75;100569.69;6087043;23;45428;-79
2021/07/30 06:23:24;;;;;;;;;0.25;0.00;;;;;19.37;53.26;100587.25;6086815;23;45329;-78
2021/07/30 06:25:49;;;;;;;;;0.00;0.00;;;;;19.30;53.25;100574.28;6086415;23;45641;-79
2021/07/30 06:28:14;;;;;;;;;0.00;0.00;;;;;19.39;53.42;100574.03;6085341;23;56876;-78
2021/07/30 06:30:40;;;;;;;;;0.00;0.00;;;;;19.48;53.54;100588.72;6074439;23;45331;-78
2021/07/30 06:33:14;;;;;;;;;0.00;0.00;;;;;18.74;53.28;100450.19;6076291;23;45973;-78
2021/07/30 06:35:39;;;;;;;;;2.00;0.00;;;;;19.53;52.96;100583.25;6079309;23;45350;-78
2021/07/30 06:38:07;;;;;;;;;0.00;0.00;;;;;19.22;53.29;100527.03;6084346;23;45395;-76
2021/07/30 06:40:32;;;;;;;;;0.50;0.00;;;;;19.44;53.21;100555.38;6086106;23;45380;-77
2021/07/30 06:42:58;;;;;;;;;0.00;0.00;;;;;19.74;53.31;100598.44;6086151;23;45282;-78
2021/07/30 06:45:23;;;;;;;;;0.00;0.00;;;;;19.84;53.19;100596.34;6086766;23;45324;-77
2021/07/30 06:47:48;;;;;;;;;0.00;0.00;;;;;19.93;53.37;100600.47;6087075;23;45415;-77
2021/07/30 06:50:13;;;;;;;;;0.00;0.00;;;;;19.69;53.12;100531.69;6086624;23;50190;-78
2021/07/30 06:52:39;;;;;;;;;0.00;0.00;;;;;20.00;53.02;100556.25;6086742;23;45377;-77
2021/07/30 06:55:05;;;;;;;;;1.00;0.00;;;;;20.28;52.55;100596.72;6075955;23;45987;-77
2021/07/30 06:57:30;;;;;;;;;0.00;0.00;;;;;20.28;52.59;100594.09;6085018;23;46505;-77
2021/07/30 06:59:57;;;;;;;;;0.00;0.00;;;;;20.23;52.28;100587.19;6085354;23;45484;-75
2021/07/30 07:02:22;;;;;;;;;0.00;0.00;;;;;20.23;52.62;100597.75;6085383;23;45323;-75
2021/07/30 07:04:48;;;;;;;;;0.00;0.00;;;;;20.22;52.68;100596.00;6085659;23;50000;-76
2021/07/30 07:07:13;;;;;;;;;0.00;0.00;;;;;20.24;52.25;100596.81;6084493;23;67893;-75
2021/07/30 07:09:39;;;;;;;;;0.00;0.00;;;;;20.13;52.38;100586.63;6085694;23;45274;-77
2021/07/30 07:12:05;;;;;;;;;0.00;0.00;;;;;20.18;52.82;100583.81;6086587;23;45350;-77
2021/07/30 07:14:31;;;;;;;;;0.25;0.25;;;;;20.32;52.72;100593.94;6085922;23;45392;-77
2021/07/30 07:16:56;;;;;;;;;0.00;0.00;;;;;20.35;52.69;100603.53;6085695;23;45410;-78
2021/07/30 07:19:22;;;;;;;;;0.00;0.00;;;;;20.35;52.92;100596.47;6085604;23;45279;-77
2021/07/30 07:21:50;;;;;;;;;0.00;0.00;;;;;20.38;52.73;100598.13;6084330;23;45328;-77
2021/07/30 07:24:15;;;;;;;;;0.00;0.00;;;;;20.30;53.33;100595.75;6086965;23;45472;-77
2021/07/30 07:26:41;;;;;;;;;0.25;0.00;;;;;20.35;53.33;100590.31;6086626;23;46022;-76
2021/07/30 07:29:06;;;;;;;;;0.00;0.00;;;;;20.28;54.02;100576.47;6086054;23;45416;-78
2021/07/30 07:31:32;;;;;;;;;0.25;0.00;;;;;20.33;53.94;100582.44;6084058;23;45334;-76
2021/07/30 07:33:57;;;;;;;;;0.00;0.00;;;;;20.39;54.17;100591.91;6086796;23;45362;-77
2021/07/30 07:36:23;;;;;;;;;0.00;0.00;;;;;20.29;53.98;100580.81;6085973;23;45336;-76
2021/07/30 07:38:48;;;;;;;;;0.00;0.00;;;;;20.23;54.71;100579.25;6073959;23;45745;-76
2021/07/30 07:41:14;;;;;;;;;0.00;0.00;;;;;20.08;54.65;100570.06;6086108;23;45380;-77
2021/07/30 07:43:39;;;;;;;;;0.00;0.00;;;;;20.12;54.84;100590.19;6087954;23;45508;-78
2021/07/30 07:46:05;;;;;;;;;0.00;0.00;;;;;20.07;55.35;100572.75;6074384;23;46917;-79
2021/07/30 07:48:30;;;;;;;;;0.00;0.00;;;;;20.05;55.12;100561.38;6074048;23;45283;-78
2021/07/30 07:50:56;;;;;;;;;0.00;0.00;;;;;20.24;55.38;100578.34;6082618;23;45370;-78
2021/07/30 07:53:21;;;;;;;;;0.75;0.75;;;;;20.29;55.09;100572.00;6086030;23;45316;-79
2021/07/30 07:55:48;;;;;;;;;0.00;0.00;;;;;20.18;55.15;100549.47;6074232;23;45394;-79
2021/07/30 07:58:14;;;;;;;;;0.00;0.00;;;;;20.29;55.57;100543.81;6074040;23;45309;-77
2021/07/30 08:00:40;;;;;;;;;0.00;0.00;;;;;20.43;55.39;100553.88;6084958;23;45222;-77
2021/07/30 08:03:05;;;;;;;;;0.00;0.00;;;;;20.40;55.64;100546.09;6086578;23;45388;-79
2021/07/30 08:05:30;;;;;;;;;0.00;0.00;;;;;20.43;55.46;100532.72;6084884;23;46379;-79
2021/07/30 08:07:56;;;;;;;;;0.00;0.00;;;;;20.62;55.53;100556.72;6085526;23;47068;-80
2021/07/30 08:10:21;;;;;;;;;0.25;0.00;;;;;20.68;55.74;100553.03;6086631;23;46038;-77
2021/07/30 08:12:47;;;;;;;;;0.50;0.00;;;;;20.69;55.64;100554.72;6087917;23;45417;-79
2021/07/30 08:15:12;;;;;;;;;0.00;0.00;;;;;20.64;55.57;100549.59;6087316;23;45988;-80
2021/07/30 08:17:38;;;;;;;;;0.00;0.00;;;;;20.66;55.81;100546.91;6085344;23;45471;-79
2021/07/30 08:20:06;;;;;;;;;1.75;0.00;;;;;20.82;55.67;100549.84;6086986;23;45363;-79
2021/07/30 08:22:31;;;;;;;;;0.00;0.00;;;;;20.99;55.34;100524.56;6086583;23;45228;-81
2021/07/30 08:24:56;;;;;;;;;0.50;0.00;;;;;21.19;55.16;100531.72;6083428;23;48273;-77
2021/07/30 08:27:22;;;;;;;;;0.00;0.00;;;;;21.02;55.21;100516.50;6083993;23;53949;-77
2021/07/30 08:29:47;;;;;;;;;0.00;0.00;;;;;20.98;55.14;100531.63;6083216;23;45356;-80
2021/07/30 08:32:12;;;;;;;;;0.00;0.00;;;;;21.01;55.41;100547.41;6087036;23;45338;-80
2021/07/30 08:34:39;;;;;;;;;0.00;0.00;;;;;21.14;55.48;100558.34;6082549;23;45887;-78
2021/07/30 08:37:06;;;;;;;;;0.00;0.00;;;;;21.18;55.65;100550.31;6056291;23;45485;-78
2021/07/30 08:39:31;;;;;;;;;0.00;0.00;;;;;20.96;54.86;100527.31;6082827;23;45737;-82
2021/07/30 08:42:01;;;;;;;;;0.00;0.00;;;;;20.96;55.70;100549.38;6071570;23;45515;-78
2021/07/30 08:44:27;;;;;;;;;1.00;0.00;;;;;20.91;55.99;100548.66;6084017;23;45801;-81
2021/07/30 08:46:53;;;;;;;;;0.00;0.00;;;;;20.99;56.06;100554.53;6086643;23;45397;-79
2021/07/30 08:49:19;;;;;;;;;0.00;0.00;;;;;21.08;56.26;100558.63;6086786;23;45355;-80
2021/07/30 08:51:46;;;;;;;;;0.00;0.00;;;;;21.10;56.40;100551.47;6076429;23;45235;-80
2021/07/30 08:54:14;;;;;;;;;0.00;0.00;;;;;21.01;56.35;100546.56;6087515;23;45521;-80
2021/07/30 08:56:39;;;;;;;;;0.00;0.00;;;;;21.00;56.49;100529.81;6074850;23;45594;-79
2021/07/30 08:59:06;;;;;;;;;0.00;0.00;;;;;20.85;56.31;100496.81;6087199;23;45261;-80
2021/07/30 09:01:31;;;;;;;;;0.00;0.00;;;;;21.24;56.23;100548.28;6070342;23;45373;-79
2021/07/30 09:03:57;;;;;;;;;0.50;0.00;;;;;21.03;56.58;100491.78;6087058;23;45993;-78
2021/07/30 09:06:24;;;;;;;;;0.00;0.00;;;;;21.21;55.95;100499.91;6087787;23;45475;-78
2021/07/30 09:09:12;;;;;;;;;3.00;0.00;;;;;21.46;56.20;100517.44;6087414;23;45575;-79
2021/07/30 09:11:40;;;;;;;;;0.00;0.00;;;;;21.71;55.83;100543.78;6086523;23;45549;-78
2021/07/30 09:14:09;;;;;;;;;0.00;0.00;;;;;21.62;55.90;100549.47;6085809;23;45520;-78
2021/07/30 09:16:51;;;;;;;;;0.00;0.00;;;;;21.59;55.84;100544.31;6083336;23;45319;-78
2021/07/30 09:19:17;;;;;;;;;0.00;0.00;;;;;21.60;55.95;100540.72;6087687;23;45297;-80
2021/07/30 09:21:43;;;;;;;;;0.00;0.00;;;;;21.60;55.68;100538.94;6085683;23;45381;-79
2021/07/30 09:24:11;;;;;;;;;0.00;0.00;;;;;21.68;55.71;100545.72;6086167;23;45321;-79
2021/07/30 09:26:43;;;;;;;;;0.00;0.00;;;;;21.67;55.94;100534.25;6086952;23;45467;-79
2021/07/30 09:29:21;;;;;;;;;0.50;0.00;;;;;21.65;55.96;100533.44;6086811;23;45290;-79
2021/07/30 09:31:48;;;;;;;;;0.00;0.00;;;;;21.68;56.27;100541.25;6086649;23;45449;-78
2021/07/30 09:34:15;;;;;;;;;0.00;0.00;;;;;21.57;56.26;100522.31;6086223;23;45911;-79
2021/07/30 09:36:42;;;;;;;;;0.00;0.00;;;;;21.77;55.87;100527.66;6086644;23;45345;-78
2021/07/30 09:39:08;;;;;;;;;0.25;0.25;;;;;21.82;55.38;100532.78;6087018;23;45429;-81
2021/07/30 09:41:33;;;;;;;;;0.00;0.00;;;;;21.89;55.54;100538.66;6087161;23;45230;-80
2021/07/30 09:44:05;;;;;;;;;0.00;0.00;;;;;21.76;55.92;100528.59;6086796;23;45754;-77
2021/07/30 09:46:30;;;;;;;;;0.00;0.00;;;;;21.62;55.87;100504.44;6086557;23;45428;-79
2021/07/30 09:48:55;;;;;;;;;1.00;1.00;;;;;21.68;56.39;100517.41;6086422;23;48126;-83
2021/07/30 09:51:21;;;;;;;;;0.00;0.00;;;;;22.11;55.63;100535.13;6086083;23;45587;-80
2021/07/30 09:53:47;;;;;;;;;0.75;0.00;;;;;22.21;55.64;100519.66;6087399;23;45466;-88
2021/07/30 09:56:14;;;;;;;;;0.00;0.00;;;;;22.59;55.32;100530.38;6087122;23;45328;-80
2021/07/30 09:58:42;;;;;;;;;0.00;0.00;;;;;22.79;54.57;100520.66;6086694;23;45326;-80
2021/07/30 10:01:13;;;;;;;;;0.00;0.00;;;;;22.98;53.67;100523.31;6085515;23;45376;-79
2021/07/30 10:03:41;;;;;;;;;1.75;0.00;;;;;23.07;53.50;100529.09;6086535;23;45309;-81
2021/07/30 10:06:09;;;;;;;;;0.00;0.00;;;;;22.84;53.01;100493.88;6086982;23;45445;-79
2021/07/30 10:08:35;;;;;;;;;0.00;0.00;;;;;22.78;53.16;100518.91;6086662;23;45317;-80
2021/07/30 10:11:01;;;;;;;;;0.00;0.00;;;;;22.54;53.28;100495.19;6087169;23;45355;-79
2021/07/30 10:13:35;;;;;;;;;0.00;0.00;;;;;22.59;53.60;100510.94;6085994;23;46098;-78
2021/07/30 10:16:03;;;;;;;;;0.00;0.00;;;;;22.62;53.09;100503.72;6086494;23;45317;-79
2021/07/30 10:18:28;;;;;;;;;0.00;0.00;;;;;22.63;53.48;100493.97;6086087;23;45232;-79
2021/07/30 10:21:00;;;;;;;;;0.00;0.00;;;;;22.52;53.11;100500.59;6087175;23;45391;-79
2021/07/30 10:23:26;;;;;;;;;0.00;0.00;;;;;22.59;53.38;100524.22;6085997;23;45675;-79
2021/07/30 10:25:54;;;;;;;;;0.00;0.00;;;;;22.50;52.10;100518.38;6086837;23;45333;-78
2021/07/30 10:28:22;;;;;;;;;0.00;0.00;;;;;22.25;52.22;100490.31;6086248;23;45529;-79
2021/07/30 10:30:59;;;;;;;;;0.00;0.00;;;;;22.46;52.44;100495.56;6086858;23;45340;-79
2021/07/30 10:33:30;;;;;;;;;0.00;0.00;;;;;22.80;52.11;100513.53;6087104;23;45511;-79
2021/07/30 10:35:57;;;;;;;;;0.00;0.00;;;;;22.95;51.60;100496.91;6087114;23;45295;-78
2021/07/30 10:38:24;;;;;;;;;1.00;0.00;;;;;22.98;50.42;100496.78;6087417;23;45289;-78
2021/07/30 10:40:55;;;;;;;;;0.00;0.00;;;;;22.94;50.71;100505.78;6087619;23;45298;-77
2021/07/30 10:43:21;;;;;;;;;0.00;0.00;;;;;22.49;51.17;100478.66;6084083;23;49135;-77
2021/07/30 10:46:13;;;;;;;;;0.00;0.00;;;;;22.47;51.60;100510.53;6086973;23;45475;-77
2021/07/30 10:48:39;;;;;;;;;0.00;0.00;;;;;22.22;52.12;100481.63;6090863;23;45306;-78
2021/07/30 10:51:20;;;;;;;;;0.00;0.00;;;;;22.36;52.32;100494.28;6087621;23;45387;-78
2021/07/30 10:53:46;;;;;;;;;0.00;0.00;;;;;;;;6084753;23;46011;-78
2021/07/30 10:56:18;;;;;;;;;1.00;0.00;;;;;22.27;49.82;100483.13;6086887;23;45335;-77
2021/07/30 10:58:43;;;;;;;;;0.00;0.00;;;;;22.70;49.22;100513.13;6086560;23;45471;-80
2021/07/30 11:01:09;;;;;;;;;0.00;0.00;;;;;22.86;49.41;100522.09;6085565;23;45308;-78
2021/07/30 11:03:52;;;;;;;;;0.00;0.00;;;;;23.04;48.88;100525.66;6087025;23;45446;-78
2021/07/30 11:06:30;;;;;;;;;0.00;0.00;;;;;23.11;48.75;100520.94;6087293;23;45383;-79
2021/07/30 11:09:03;;;;;;;;;0.25;0.25;;;;;23.24;48.15;100521.19;6087046;23;45286;-78
2021/07/30 11:11:50;;;;;;;;;0.00;0.00;;;;;23.33;46.91;100511.91;6087128;23;45360;-78
2021/07/30 11:14:27;;;;;;;;;0.00;0.00;;;;;23.12;46.19;100477.50;6088689;23;45640;-78
2021/07/30 11:17:01;;;;;;;;;0.00;0.00;;;;;22.87;44.37;100436.25;6088512;23;45389;-78
2021/07/30 11:19:27;;;;;;;;;0.00;0.00;;;;;23.41;43.64;100515.09;6088921;23;45321;-78
2021/07/30 11:21:54;;;;;;;;;0.00;0.00;;;;;23.29;41.06;100503.25;6089586;23;45585;-78
2021/07/30 11:24:20;;;;;;;;;0.00;0.00;;;;;23.27;42.08;100497.16;6089187;23;46449;-77
2021/07/30 11:26:47;;;;;;;;;0.00;0.00;;;;;23.05;41.12;100468.13;6088253;23;45269;-79